AirNav   TITAN Aviation Fuels
 
 629 users online  

9CA6 North Valley Airport
Dyer, Nevada, USA

GOING TO DYER?


FAA INFORMATION EFFECTIVE 01 DECEMBER 2022

Location

FAA Identifier: 9CA6
Lat/Long: 37-52-08.7490N 118-05-42.3930W
37-52.145817N 118-05.706550W
37.8690969,-118.0951092
(estimated)
Elevation: 4960 ft. / 1512 m (estimated)
Variation: 15E (1985)
From city: 12 miles N of DYER, NV
Time zone: UTC -8 (UTC -7 during Daylight Saving Time)
Zip code: 89010

Airport Operations

Airport use: Private use. Permission required prior to landing
Activation date: 12/1979
Sectional chart:  (AIRPORT IS 10 MILES INTO NEVADA. THE CLOSEST ASSC CITY IS BISHOP, CA - AND IS CORRECTLY CHARTED ON SAN FRANCISCO SECTIONAL.)
Control tower: no
ARTCC: OAKLAND CENTER
FSS: RENO FLIGHT SERVICE STATION
Attendance: UNATNDD
Wind indicator: yes
Segmented circle: no

Nearby radio navigation aids

VOR radial/distance  VOR name  Freq  Var
OALr225/17.3COALDALE VORTAC117.7017E
BIHr009/32.2BISHOP VOR/DME109.6015E

Airport Services

Runway Information

Runway 16/34

Dimensions: 5300 x 100 ft. / 1615 x 30 m
Surface: dirt
RUNWAY 16  RUNWAY 34
Traffic pattern: leftleft

Airport Ownership and Management from official FAA records

Ownership: Privately-owned
Owner: COMBINED METALS REDUCTION CO.
FISHLAKE VALLEY
TONOPAH, NV 89049
Phone 702-572-3282
Manager: RICHARD BOGENREIF
FISHLAKE VALLEY
TONOPAH, NV 89049
Phone 702-572-3282

Airport Operational Statistics

Aircraft based on the field: 2
Single engine airplanes: 1
Multi engine airplanes: 1
    

Additional Remarks

FENCE ON EAST SIDE OF STRIP.
FOR CD CTC OAKLAND ARTCC AT 510-745-3380.

Instrument Procedures

There are no published instrument procedures at 9CA6.

Some nearby airports with instrument procedures:

KBIH - Bishop Airport (32 nm SW)
KMMH - Mammoth Yosemite Airport (38 nm W)
KHTH - Hawthorne Industrial Airport (48 nm NW)
KTPH - Tonopah Airport (49 nm E)
KTNX - Tonopah Test Range Airport (62 nm E)
 
Loc | Ops | Rwys | IFR | FBO | Links
Com | Nav | Svcs | Stats | Notes
Area around 9CA6 (North Valley Airport)
 
Road maps at: MapQuest Bing Google
 
Aerial photo
No photo
 
Sectional chart

 
Airport distance calculator
Flying to North Valley Airport? Find the distance to fly.

From to 9CA6

Sunrise and sunset
Times for 04-Dec-2022
 Local
(UTC-8)
 Zulu
(UTC)
Morning civil twilight06:2414:24
Sunrise06:5314:53
Sunset16:3200:32
Evening civil twilight17:0101:01

Current date and time
Zulu (UTC)  05-Dec-2022 05:19:30
Local (UTC-8)  04-Dec-2022 21:19:30
 
METAR
KBIH 
32nm S 
050456Z AUTO 32005KT 10SM CLR 06/M07 A2991 RMK AO2 SLP115 T00561067
KMMH 
37nm SW 
050500Z AUTO 09009KT 10SM CLR 00/M07 A3000 RMK AO2
KTPH 
49nm E 
050456Z AUTO 36004KT 10SM BKN019 02/01 A2998 RMK AO2 SLP149 T00170006
TAF
KBIH 
32nm S 
042056Z 0421/0518 01007KT P6SM SCT060 FM050100 35008KT P6SM FEW120 BKN200
KMMH 
37nm SW 
050248Z 0503/0524 21022G34KT P6SM SCT050 WS020/22050KT FM050400 26011KT P6SM BKN180 WS020/23035KT FM051200 23005KT 4SM -SHSN BKN090
NOTAMs
Click for the latest NOTAMs
NOTAMs are issued by the DoD/FAA and will open in a separate window not controlled by AirNav.

 

 
 

Would you like to see your business listed on this page?

 If your business provides an interesting product or service to pilots, flight crews, aircraft, or users of the North Valley Airport, you should consider listing it here.  To start the listing process, click on the button below
 
Add a business
 

Other Pages about North Valley Airport

Update a link
 
Copyright © AirNav, LLC. All rights reserved. Privacy Policy  Contact